createdAt,value
2023-03-31T00:00:14.861Z,98697.94
2023-03-31T00:02:42.440Z,98692.78
2023-03-31T00:05:10.837Z,98680.31
2023-03-31T00:07:41.106Z,98680.97
2023-03-31T00:12:45.456Z,98686.81
2023-03-31T00:15:12.838Z,98684.63
2023-03-31T00:17:40.201Z,98687.63
2023-03-31T00:20:12.615Z,98682.59
2023-03-31T00:22:42.575Z,98698.72
2023-03-31T00:25:11.343Z,98690.72
2023-03-31T00:27:42.375Z,98694.84
2023-03-31T00:30:12.606Z,98685.19
2023-03-31T00:32:40.146Z,98682.47
2023-03-31T00:35:09.009Z,98679.13
2023-03-31T00:37:36.334Z,98682.34
2023-03-31T00:40:10.115Z,98675.22
2023-03-31T00:42:41.229Z,98674.84
2023-03-31T00:45:23.842Z,98676.00
2023-03-31T00:47:55.346Z,98673.34
2023-03-31T00:50:27.189Z,98678.59
2023-03-31T00:52:58.103Z,98673.19
2023-03-31T00:55:32.611Z,98680.97
2023-03-31T00:58:02.176Z,98674.34
2023-03-31T01:00:31.094Z,98670.09
2023-03-31T01:03:02.376Z,98663.91
2023-03-31T01:05:36.176Z,98659.34
2023-03-31T01:08:06.018Z,98661.19
2023-03-31T01:10:41.694Z,98661.97
2023-03-31T01:13:10.965Z,98645.28
2023-03-31T01:15:40.472Z,98642.63
2023-03-31T01:18:11.043Z,98643.56
2023-03-31T01:20:57.672Z,98637.16
2023-03-31T01:23:53.072Z,98637.44
2023-03-31T01:26:50.082Z,98640.28
2023-03-31T01:29:48.119Z,98630.47
2023-03-31T01:32:50.910Z,98626.13
2023-03-31T01:35:38.000Z,98617.56
2023-03-31T01:38:31.527Z,98630.84
2023-03-31T01:41:17.146Z,98624.28
2023-03-31T01:43:54.623Z,98618.59
2023-03-31T01:46:29.191Z,98625.66
2023-03-31T01:49:09.528Z,98605.16
2023-03-31T01:51:44.875Z,98614.09
2023-03-31T01:54:19.719Z,98620.63
2023-03-31T01:56:52.686Z,98626.81
2023-03-31T01:59:27.208Z,98618.69
2023-03-31T02:01:59.615Z,98629.22
2023-03-31T02:04:31.748Z,98614.94
2023-03-31T02:07:04.105Z,98621.34
2023-03-31T02:09:35.002Z,98611.19
2023-03-31T02:12:08.770Z,98606.47
2023-03-31T02:14:40.045Z,98610.81
2023-03-31T02:17:14.458Z,98605.31
2023-03-31T02:19:46.558Z,98606.91
2023-03-31T02:22:16.566Z,98589.84
2023-03-31T02:24:46.296Z,98607.50
2023-03-31T02:27:21.229Z,98606.59
2023-03-31T02:29:49.117Z,98611.72
2023-03-31T02:32:22.597Z,98620.78
2023-03-31T02:34:50.179Z,98618.13
2023-03-31T02:37:17.700Z,98625.00
2023-03-31T02:39:49.028Z,98625.00
2023-03-31T02:42:18.413Z,98620.97
2023-03-31T02:44:46.060Z,98631.16
2023-03-31T02:47:16.430Z,98629.56
2023-03-31T02:49:48.787Z,98632.28
2023-03-31T02:52:45.624Z,98637.78
2023-03-31T02:55:28.248Z,98635.88
2023-03-31T02:58:26.960Z,98625.00
2023-03-31T03:01:11.630Z,98624.19
2023-03-31T03:03:50.449Z,98632.22
2023-03-31T03:06:28.038Z,98628.19
2023-03-31T03:09:17.259Z,98625.81
2023-03-31T03:11:52.152Z,98623.16
2023-03-31T03:14:32.326Z,98620.88
2023-03-31T03:17:04.095Z,98623.72
2023-03-31T03:19:31.551Z,98614.94
2023-03-31T03:21:59.116Z,98605.69
2023-03-31T03:24:29.819Z,98597.19
2023-03-31T03:26:57.885Z,98596.75
2023-03-31T03:29:27.371Z,98593.34
2023-03-31T03:31:54.880Z,98593.56
2023-03-31T03:34:22.235Z,98593.09
2023-03-31T03:36:49.607Z,98588.75
2023-03-31T03:39:16.956Z,98585.22
2023-03-31T03:41:44.245Z,98578.34
2023-03-31T03:44:11.626Z,98556.84
2023-03-31T03:46:40.722Z,98559.94
2023-03-31T03:49:08.012Z,98561.66
2023-03-31T03:51:35.825Z,98553.75
2023-03-31T03:54:03.492Z,98545.38
2023-03-31T03:56:31.322Z,98540.59
2023-03-31T03:58:58.683Z,98539.66
2023-03-31T04:01:26.209Z,98538.28
2023-03-31T04:03:55.005Z,98546.28
2023-03-31T04:06:22.597Z,98546.25
2023-03-31T04:08:49.840Z,98551.56
2023-03-31T04:11:19.372Z,98544.22
2023-03-31T04:13:47.511Z,98549.38
2023-03-31T04:16:16.941Z,98540.56
2023-03-31T04:18:48.901Z,98541.38
2023-03-31T04:21:23.186Z,98532.00
2023-03-31T04:23:58.773Z,98531.56
2023-03-31T04:26:31.115Z,98538.78
2023-03-31T04:29:00.413Z,98531.69
2023-03-31T04:31:31.035Z,98528.25
2023-03-31T04:34:02.670Z,98537.19
2023-03-31T04:36:32.020Z,98531.00
2023-03-31T04:39:00.040Z,98519.31
2023-03-31T04:41:30.093Z,98519.31
2023-03-31T04:43:57.495Z,98520.94
2023-03-31T04:46:25.728Z,98525.97
2023-03-31T04:48:53.111Z,98530.75
2023-03-31T04:51:20.550Z,98538.19
2023-03-31T04:53:49.713Z,98532.81
2023-03-31T04:56:17.184Z,98550.91
2023-03-31T04:58:44.838Z,98538.19
2023-03-31T05:01:13.938Z,98541.97
2023-03-31T05:03:41.566Z,98542.34
2023-03-31T05:06:09.181Z,98547.03
2023-03-31T05:08:37.409Z,98544.97
2023-03-31T05:11:06.912Z,98514.06
2023-03-31T05:13:34.170Z,98534.44
2023-03-31T05:16:07.055Z,98532.63
2023-03-31T05:18:34.436Z,98540.16
2023-03-31T05:21:13.219Z,98548.19
2023-03-31T05:23:40.738Z,98543.16
2023-03-31T05:26:09.790Z,98540.16
2023-03-31T05:28:38.025Z,98528.34
2023-03-31T05:31:06.958Z,98540.72
2023-03-31T05:33:35.071Z,98538.78
2023-03-31T05:36:02.472Z,98526.19
2023-03-31T05:38:31.639Z,98519.53
2023-03-31T05:40:59.186Z,98506.84
2023-03-31T05:43:27.979Z,98511.16
2023-03-31T05:45:55.425Z,98500.38
2023-03-31T05:48:22.791Z,98502.28
2023-03-31T05:50:50.717Z,98510.06
2023-03-31T05:53:18.016Z,98504.53
2023-03-31T05:55:45.832Z,98496.06
2023-03-31T05:58:13.000Z,98500.88
2023-03-31T06:00:41.834Z,98491.22
2023-03-31T06:03:09.184Z,98499.34
2023-03-31T06:05:36.515Z,98495.53
2023-03-31T06:08:04.414Z,98483.38
2023-03-31T06:10:31.812Z,98496.97
2023-03-31T06:12:59.082Z,98498.28
2023-03-31T06:15:26.505Z,98501.22
2023-03-31T06:17:55.393Z,98501.22
2023-03-31T06:20:28.242Z,98500.06
2023-03-31T06:22:56.168Z,98492.75
2023-03-31T06:25:23.683Z,98489.41
2023-03-31T06:27:52.030Z,98484.13
2023-03-31T06:30:19.422Z,98478.16
2023-03-31T06:32:47.076Z,98484.28
2023-03-31T06:35:16.060Z,98488.19
2023-03-31T06:37:43.302Z,98493.66
2023-03-31T06:40:11.438Z,98491.00
2023-03-31T06:42:39.611Z,98497.69
2023-03-31T06:45:07.919Z,98506.22
2023-03-31T06:47:35.262Z,98500.16
2023-03-31T06:50:02.819Z,98500.31
2023-03-31T06:52:31.899Z,98491.56
2023-03-31T06:55:00.675Z,98483.63
2023-03-31T06:57:28.613Z,98482.03
2023-03-31T06:59:55.999Z,98489.81
2023-03-31T07:02:23.429Z,98490.09
2023-03-31T07:04:50.780Z,98482.09
2023-03-31T07:07:18.497Z,98484.50
2023-03-31T07:09:47.264Z,98487.69
2023-03-31T07:12:14.651Z,98486.66
2023-03-31T07:14:42.946Z,98491.19
2023-03-31T07:17:11.789Z,98488.03
2023-03-31T07:19:42.325Z,98473.41
2023-03-31T07:22:09.782Z,98472.38
2023-03-31T07:24:37.136Z,98472.09
2023-03-31T07:27:05.916Z,98470.50
2023-03-31T07:29:33.297Z,98482.19
2023-03-31T07:32:00.640Z,98475.81
2023-03-31T07:34:28.038Z,98468.25
2023-03-31T07:36:55.987Z,98466.00
2023-03-31T07:39:23.357Z,98474.53
2023-03-31T07:41:50.775Z,98475.59
2023-03-31T07:44:20.505Z,98461.50
2023-03-31T07:46:47.776Z,98472.53
2023-03-31T07:49:16.249Z,98469.47
2023-03-31T07:51:43.560Z,98474.94
2023-03-31T07:54:10.828Z,98472.16
2023-03-31T07:56:38.427Z,98465.13
2023-03-31T07:59:05.836Z,98465.78
2023-03-31T08:01:35.007Z,98459.41
2023-03-31T08:04:02.580Z,98458.91
2023-03-31T08:06:30.563Z,98461.81
2023-03-31T08:08:58.371Z,98456.38
2023-03-31T08:11:26.193Z,98451.19
2023-03-31T08:13:54.136Z,98455.97
2023-03-31T08:16:21.665Z,98452.53
2023-03-31T08:18:50.416Z,98434.69
2023-03-31T08:21:17.966Z,98426.44
2023-03-31T08:23:45.384Z,98420.31
2023-03-31T08:26:17.349Z,98410.75
2023-03-31T08:28:46.086Z,98415.94
2023-03-31T08:31:16.535Z,98410.47
2023-03-31T08:33:44.386Z,98413.66
2023-03-31T08:36:13.751Z,98412.88
2023-03-31T08:38:43.059Z,98403.28
2023-03-31T08:41:23.295Z,98397.13
2023-03-31T08:43:51.013Z,98406.22
2023-03-31T08:46:19.697Z,98406.22
2023-03-31T08:48:50.307Z,98367.63
2023-03-31T08:51:22.879Z,98397.69
2023-03-31T08:53:55.760Z,98393.03
2023-03-31T08:56:24.565Z,98393.69
2023-03-31T08:58:52.807Z,98399.28
2023-03-31T09:01:37.972Z,98390.38
2023-03-31T09:04:26.075Z,98379.06
2023-03-31T09:07:02.733Z,98379.06
2023-03-31T09:09:44.447Z,98384.41
2023-03-31T09:12:20.608Z,98381.59
2023-03-31T09:14:55.025Z,98387.72
2023-03-31T09:17:26.711Z,98380.16
2023-03-31T09:19:59.064Z,98364.97
2023-03-31T09:22:31.733Z,98364.97
2023-03-31T09:25:01.476Z,98368.44
2023-03-31T09:27:32.631Z,98365.25
2023-03-31T09:30:05.821Z,98353.56
2023-03-31T09:32:33.966Z,98362.84
2023-03-31T09:35:14.473Z,98360.44
2023-03-31T09:37:43.104Z,98352.22
2023-03-31T09:40:16.655Z,98340.34
2023-03-31T09:42:44.907Z,98342.09
2023-03-31T09:45:16.186Z,98324.13
2023-03-31T09:47:45.978Z,98338.47
2023-03-31T09:50:14.548Z,98331.56
2023-03-31T09:52:46.422Z,98325.56
2023-03-31T09:55:32.126Z,98335.91
2023-03-31T09:58:07.457Z,98337.94
2023-03-31T10:00:35.692Z,98333.78
2023-03-31T10:03:07.878Z,98333.25
2023-03-31T10:05:37.924Z,98332.97
2023-03-31T10:08:26.548Z,98321.00
2023-03-31T10:10:56.278Z,98319.66
2023-03-31T10:13:25.596Z,98325.22
2023-03-31T10:15:54.795Z,98306.09
2023-03-31T10:18:33.420Z,98311.25
2023-03-31T10:21:03.091Z,98315.38
2023-03-31T10:23:34.135Z,98320.16
2023-03-31T10:26:03.937Z,98319.88
2023-03-31T10:28:34.793Z,98300.34
2023-03-31T10:31:03.656Z,98312.03
2023-03-31T10:33:35.000Z,98313.09
2023-03-31T10:36:08.801Z,98310.72
2023-03-31T10:38:42.809Z,98304.47
2023-03-31T10:41:10.895Z,98313.25
2023-03-31T10:43:41.831Z,98316.00
2023-03-31T10:46:10.234Z,98300.97
2023-03-31T10:48:40.016Z,98301.63
2023-03-31T10:51:18.558Z,98286.59
2023-03-31T10:53:48.813Z,98299.00
2023-03-31T10:56:32.208Z,98289.13
2023-03-31T10:59:21.468Z,98264.16
2023-03-31T11:02:01.924Z,98276.78
2023-03-31T11:05:01.017Z,98269.56
2023-03-31T11:07:50.418Z,98259.91
2023-03-31T11:10:35.082Z,98264.69
2023-03-31T11:13:13.712Z,98265.22
2023-03-31T11:15:46.152Z,98264.41
2023-03-31T11:18:32.038Z,98255.63
2023-03-31T11:21:10.714Z,98249.47
2023-03-31T11:23:43.137Z,98239.75
2023-03-31T11:26:20.204Z,98254.78
2023-03-31T11:29:04.086Z,98249.34
2023-03-31T11:31:38.746Z,98244.78
2023-03-31T11:34:20.551Z,98246.81
2023-03-31T11:37:13.396Z,98231.81
2023-03-31T11:39:57.390Z,98244.31
2023-03-31T11:42:29.172Z,98237.53
2023-03-31T11:45:03.926Z,98238.84
2023-03-31T11:47:37.439Z,98241.38
2023-03-31T11:50:11.523Z,98234.19
2023-03-31T11:52:43.671Z,98232.47
2023-03-31T11:55:16.889Z,98230.44
2023-03-31T11:57:50.876Z,98199.13
2023-03-31T12:00:21.392Z,98228.22
2023-03-31T12:02:53.073Z,98219.81
2023-03-31T12:05:22.466Z,98218.22
2023-03-31T12:07:57.437Z,98214.59
2023-03-31T12:10:35.668Z,98218.31
2023-03-31T12:13:16.294Z,98221.56
2023-03-31T12:15:51.569Z,98219.44
2023-03-31T12:18:23.502Z,98205.25
2023-03-31T12:20:54.131Z,98206.59
2023-03-31T12:23:25.138Z,98192.78
2023-03-31T12:26:02.225Z,98193.03
2023-03-31T12:28:33.857Z,98199.94
2023-03-31T12:31:03.434Z,98195.69
2023-03-31T12:33:33.302Z,98191.72
2023-03-31T12:36:23.727Z,98188.38
2023-03-31T12:38:59.168Z,98176.00
2023-03-31T12:41:37.996Z,98176.63
2023-03-31T12:44:36.300Z,98178.91
2023-03-31T12:47:33.807Z,98171.31
2023-03-31T12:50:27.550Z,98167.81
2023-03-31T12:53:05.804Z,98171.03
2023-03-31T12:55:37.589Z,98170.88
2023-03-31T12:58:42.401Z,98166.63
2023-03-31T13:01:16.687Z,98164.50
2023-03-31T13:03:50.801Z,98165.59
2023-03-31T13:07:00.015Z,98161.19
2023-03-31T13:09:47.638Z,98163.47
2023-03-31T13:12:18.122Z,98157.91
2023-03-31T13:14:47.705Z,98162.84
2023-03-31T13:17:24.234Z,98159.31
2023-03-31T13:19:52.594Z,98158.69
2023-03-31T13:22:34.872Z,98150.22
2023-03-31T13:25:33.412Z,98151.66
2023-03-31T13:28:11.715Z,98147.16
2023-03-31T13:30:51.676Z,98132.69
2023-03-31T13:33:28.756Z,98143.25
2023-03-31T13:36:13.835Z,98142.34
2023-03-31T13:38:50.680Z,98137.25
2023-03-31T13:41:46.408Z,98145.06
2023-03-31T13:44:33.790Z,98123.22
2023-03-31T13:47:28.319Z,98128.97
2023-03-31T13:50:13.211Z,98126.59
2023-03-31T13:52:47.549Z,98120.66
2023-03-31T13:55:52.988Z,98135.09
2023-03-31T13:58:43.318Z,98129.91
2023-03-31T14:01:43.528Z,98125.00
2023-03-31T14:04:40.532Z,98126.88
2023-03-31T14:07:13.560Z,98126.28
2023-03-31T14:09:49.540Z,98117.91
2023-03-31T14:12:22.091Z,98115.38
2023-03-31T14:14:53.649Z,98125.69
2023-03-31T14:17:22.024Z,98131.16
2023-03-31T14:20:21.383Z,98125.59
2023-03-31T14:22:57.207Z,98122.28
2023-03-31T14:25:37.853Z,98127.38
2023-03-31T14:28:18.714Z,98116.91
2023-03-31T14:30:54.788Z,98114.25
2023-03-31T14:33:39.801Z,98112.63
2023-03-31T14:36:16.030Z,98112.22
2023-03-31T14:38:45.743Z,98108.91
2023-03-31T14:41:20.317Z,98108.75
2023-03-31T14:43:51.098Z,98109.69
2023-03-31T14:46:21.886Z,98109.97
2023-03-31T14:48:51.328Z,98110.25
2023-03-31T14:51:25.105Z,98102.72
2023-03-31T14:53:58.016Z,98098.75
2023-03-31T14:56:33.915Z,98116.84
2023-03-31T14:59:02.746Z,98117.91
2023-03-31T15:01:35.887Z,98118.31
2023-03-31T15:04:08.255Z,98110.88
2023-03-31T15:06:35.865Z,98116.31
2023-03-31T15:09:04.659Z,98113.41
2023-03-31T15:11:32.761Z,98109.06
2023-03-31T15:14:04.893Z,98108.91
2023-03-31T15:16:38.101Z,98105.44
2023-03-31T15:19:12.747Z,98119.00
2023-03-31T15:21:40.593Z,98103.84
2023-03-31T15:24:12.617Z,98106.66
2023-03-31T15:26:45.491Z,98108.78
2023-03-31T15:29:19.253Z,98094.06
2023-03-31T15:31:47.059Z,98100.97
2023-03-31T15:34:23.583Z,98105.22
2023-03-31T15:36:53.549Z,98100.97
2023-03-31T15:39:23.567Z,98104.94
2023-03-31T15:41:55.165Z,98103.19
2023-03-31T15:44:36.771Z,98108.63
2023-03-31T15:47:13.105Z,98092.16
2023-03-31T15:49:50.264Z,98102.63
2023-03-31T15:52:22.708Z,98098.19
2023-03-31T15:54:52.322Z,98108.72
2023-03-31T15:57:19.908Z,98110.75
2023-03-31T15:59:55.492Z,98110.88
2023-03-31T16:02:26.635Z,98097.63
2023-03-31T16:04:57.945Z,98102.81
2023-03-31T16:07:28.815Z,98098.06
2023-03-31T16:10:00.932Z,98106.56
2023-03-31T16:12:31.953Z,98106.28
2023-03-31T16:15:03.158Z,98104.66
2023-03-31T16:17:34.716Z,98102.03
2023-03-31T16:20:07.581Z,98114.34
2023-03-31T16:22:39.829Z,98103.88
2023-03-31T16:25:15.555Z,98103.66
2023-03-31T16:27:46.913Z,98110.03
2023-03-31T16:30:16.797Z,98106.03
2023-03-31T16:33:00.972Z,98110.97
2023-03-31T16:35:34.226Z,98110.59
2023-03-31T16:38:04.336Z,98107.41
2023-03-31T16:40:36.609Z,98101.84
2023-03-31T16:43:12.123Z,98098.91
2023-03-31T16:45:39.737Z,98091.88
2023-03-31T16:48:15.635Z,98089.09
2023-03-31T16:50:44.290Z,98094.16
2023-03-31T16:53:13.133Z,98090.16
2023-03-31T16:55:42.434Z,98093.09
2023-03-31T16:58:09.894Z,98097.09
2023-03-31T17:00:37.520Z,98100.03
2023-03-31T17:03:07.812Z,98103.34
2023-03-31T17:05:38.575Z,98094.41
2023-03-31T17:08:06.704Z,98100.53
2023-03-31T17:10:34.099Z,98097.63
2023-03-31T17:13:03.087Z,98093.09
2023-03-31T17:15:30.669Z,98094.00
2023-03-31T17:17:59.426Z,98098.13
2023-03-31T17:20:26.941Z,98098.41
2023-03-31T17:22:54.461Z,98097.88
2023-03-31T17:25:22.159Z,98098.25
2023-03-31T17:27:49.511Z,98085.34
2023-03-31T17:30:18.259Z,98083.75
2023-03-31T17:32:45.734Z,98088.25
2023-03-31T17:35:20.546Z,98086.41
2023-03-31T17:37:50.543Z,98086.16
2023-03-31T17:40:18.162Z,98073.94
2023-03-31T17:42:47.294Z,98074.56
2023-03-31T17:45:14.852Z,98072.22
2023-03-31T17:47:45.233Z,98080.03
2023-03-31T17:50:15.013Z,98081.63
2023-03-31T17:52:42.527Z,98082.81
2023-03-31T17:55:10.520Z,98076.34
2023-03-31T17:57:40.450Z,98082.44
2023-03-31T18:00:10.224Z,98069.19
2023-03-31T18:02:37.991Z,98078.31
2023-03-31T18:05:08.517Z,98077.66
2023-03-31T18:07:36.726Z,98071.03
2023-03-31T18:10:05.483Z,98070.34
2023-03-31T18:12:33.367Z,98067.06
2023-03-31T18:15:01.816Z,98071.06
2023-03-31T18:17:31.536Z,98064.53
2023-03-31T18:19:59.444Z,98072.91
2023-03-31T18:22:28.928Z,98074.78
2023-03-31T18:24:56.668Z,98068.16
2023-03-31T18:27:25.178Z,98064.03
2023-03-31T18:29:52.573Z,98057.53
2023-03-31T18:32:20.380Z,98062.44
2023-03-31T18:34:48.499Z,98061.91
2023-03-31T18:37:15.751Z,98058.47
2023-03-31T18:39:44.562Z,98066.66
2023-03-31T18:42:12.241Z,98052.75
2023-03-31T18:44:39.939Z,98062.97
2023-03-31T18:47:07.406Z,98055.66
2023-03-31T18:49:34.910Z,98048.00
2023-03-31T18:52:04.504Z,98048.00
2023-03-31T18:54:32.368Z,98045.31
2023-03-31T18:57:03.340Z,98042.13
2023-03-31T18:59:30.590Z,98043.19
2023-03-31T19:01:57.984Z,98044.28
2023-03-31T19:04:25.590Z,98045.31
2023-03-31T19:06:53.499Z,98038.16
2023-03-31T19:09:22.961Z,98035.78
2023-03-31T19:11:50.160Z,98025.41
2023-03-31T19:14:19.010Z,98027.81
2023-03-31T19:16:46.867Z,98038.44
2023-03-31T19:19:14.146Z,98029.13
2023-03-31T19:21:42.827Z,98029.78
2023-03-31T19:24:10.242Z,98026.50
2023-03-31T19:26:37.606Z,98021.16
2023-03-31T19:29:05.543Z,98024.22
2023-03-31T19:31:41.448Z,98030.19
2023-03-31T19:34:11.723Z,98021.97
2023-03-31T19:36:39.050Z,98028.22
2023-03-31T19:39:07.436Z,98015.63
2023-03-31T19:41:35.191Z,98021.19
2023-03-31T19:44:02.928Z,98029.16
2023-03-31T19:46:30.895Z,98027.81
2023-03-31T19:49:00.112Z,98025.56
2023-03-31T19:51:27.768Z,98029.78
2023-03-31T19:53:55.217Z,98023.19
2023-03-31T19:56:25.344Z,98016.94
2023-03-31T19:58:52.611Z,98011.91
2023-03-31T20:01:22.876Z,98018.00
2023-03-31T20:03:53.531Z,98013.88
2023-03-31T20:06:24.544Z,97997.31
2023-03-31T20:08:53.089Z,98016.94
2023-03-31T20:11:22.397Z,98021.97
2023-03-31T20:13:49.791Z,98014.53
2023-03-31T20:16:19.211Z,98014.66
2023-03-31T20:18:51.317Z,98015.47
2023-03-31T20:21:20.866Z,98017.34
2023-03-31T20:23:49.629Z,98016.66
2023-03-31T20:26:19.349Z,97985.63
2023-03-31T20:28:47.728Z,98000.63
2023-03-31T20:31:17.854Z,97989.31
2023-03-31T20:33:46.316Z,97995.28
2023-03-31T20:36:15.703Z,97988.50
2023-03-31T20:38:46.450Z,97998.59
2023-03-31T20:41:15.860Z,98000.00
2023-03-31T20:43:43.188Z,97996.44
2023-03-31T20:46:11.037Z,97992.56
2023-03-31T20:48:40.709Z,97992.94
2023-03-31T20:51:09.752Z,97999.03
2023-03-31T20:53:47.010Z,97999.31
2023-03-31T20:56:17.590Z,97995.72
2023-03-31T20:58:45.280Z,97991.88
2023-03-31T21:01:14.206Z,97998.63
2023-03-31T21:03:42.461Z,98002.06
2023-03-31T21:06:12.154Z,97980.97
2023-03-31T21:08:40.898Z,97997.72
2023-03-31T21:11:08.546Z,97998.91
2023-03-31T21:13:37.418Z,97995.44
2023-03-31T21:16:05.791Z,97997.41
2023-03-31T21:18:34.978Z,97990.41
2023-03-31T21:21:04.299Z,97991.59
2023-03-31T21:23:31.922Z,97989.19
2023-03-31T21:26:01.207Z,97993.69
2023-03-31T21:28:30.349Z,97989.47
2023-03-31T21:31:03.266Z,97974.06
2023-03-31T21:33:31.790Z,98002.16
2023-03-31T21:35:59.591Z,97991.44
2023-03-31T21:38:30.553Z,97988.91
2023-03-31T21:40:57.803Z,97995.81
2023-03-31T21:43:26.119Z,97996.88
2023-03-31T21:45:59.615Z,97996.25
2023-03-31T21:48:27.145Z,97995.44
2023-03-31T21:50:55.276Z,98001.94
2023-03-31T21:53:23.282Z,97998.63
2023-03-31T21:55:52.837Z,97996.00
2023-03-31T21:58:20.051Z,97997.44
2023-03-31T22:00:47.707Z,97994.00
2023-03-31T22:03:26.995Z,97999.97
2023-03-31T22:05:55.586Z,97979.72
2023-03-31T22:08:23.093Z,97987.91
2023-03-31T22:10:52.229Z,97990.56
2023-03-31T22:13:20.630Z,97980.22
2023-03-31T22:15:48.777Z,97992.72
2023-03-31T22:18:18.066Z,97987.78
2023-03-31T22:20:46.358Z,97986.88
2023-03-31T22:23:13.752Z,97983.44
2023-03-31T22:25:41.388Z,97977.59
2023-03-31T22:28:09.252Z,97973.47
2023-03-31T22:30:37.109Z,97973.59
2023-03-31T22:33:04.603Z,97972.56
2023-03-31T22:35:33.671Z,97971.75
2023-03-31T22:38:01.719Z,97975.09
2023-03-31T22:40:30.231Z,97971.50
2023-03-31T22:42:58.549Z,97969.66
2023-03-31T22:45:25.933Z,97969.66
2023-03-31T22:47:53.230Z,97956.38
2023-03-31T22:50:21.214Z,97966.22
2023-03-31T22:52:50.200Z,97967.78
2023-03-31T22:55:18.037Z,97967.78
2023-03-31T22:57:46.043Z,97961.97
2023-03-31T23:00:14.454Z,97959.59
2023-03-31T23:02:42.352Z,97957.88
2023-03-31T23:05:10.153Z,97961.97
2023-03-31T23:07:38.044Z,97954.28
2023-03-31T23:10:08.271Z,97955.75
2023-03-31T23:12:35.533Z,97954.69
2023-03-31T23:15:03.100Z,97955.09
2023-03-31T23:17:31.508Z,97960.13
2023-03-31T23:19:58.946Z,97953.50
2023-03-31T23:22:26.616Z,97961.72
2023-03-31T23:24:54.070Z,97952.31
2023-03-31T23:27:23.560Z,97953.09
2023-03-31T23:29:51.314Z,97944.78
2023-03-31T23:32:18.624Z,97954.84
2023-03-31T23:34:45.973Z,97948.22
2023-03-31T23:37:14.373Z,97954.56
2023-03-31T23:39:41.989Z,97954.56
2023-03-31T23:42:10.702Z,97946.75
2023-03-31T23:44:39.617Z,97945.03
2023-03-31T23:47:07.020Z,97943.19
2023-03-31T23:49:34.373Z,97950.63
2023-03-31T23:52:01.564Z,97950.63
2023-03-31T23:54:29.273Z,97957.22
2023-03-31T23:56:57.138Z,97950.34
2023-03-31T23:59:24.466Z,97951.53
